Time;durP1;ratioP1;P1;durP2;ratioP2;P2;SDS_P1;SDS_P2;PMS_P1;PMS_P2;Temp;Humidity;BMP_temperature;BMP_pressure;BME280_temperature;BME280_humidity;BME280_pressure;Samples;Min_cycle;Max_cycle;Signal;HPM_P1;HPM_P2
2023/02/22 00:02:27;;;;;;;11.57;9.38;;;;;;;17.22;53.76;101584.94;6253242;22;20007;-86
2023/02/22 00:04:38;;;;;;;9.20;8.10;;;;;;;17.24;53.63;101589.28;6267461;22;19999;-86
2023/02/22 00:07:15;;;;;;;9.93;8.40;;;;;;;17.24;53.39;101596.22;6252887;22;20004;-83
2023/02/22 00:09:48;;;;;;;10.63;8.32;;;;;;;17.22;53.60;101592.75;6227054;22;20035;-85
2023/02/22 00:12:48;;;;;;;11.00;8.45;;;;;;;17.23;53.64;101590.16;6227145;22;20073;-85
2023/02/22 00:15:20;;;;;;;11.88;8.93;;;;;;;17.22;53.64;101591.06;6250829;22;20052;-83
2023/02/22 00:17:49;;;;;;;11.48;9.23;;;;;;;17.22;53.75;101592.75;6252075;22;20008;-85
2023/02/22 00:20:22;;;;;;;12.90;9.10;;;;;;;17.21;53.75;101584.09;6251700;22;20049;-85
2023/02/22 00:22:50;;;;;;;11.77;8.90;;;;;;;17.22;53.68;101582.34;6248634;22;20501;-83
2023/02/22 00:28:38;;;;;;;10.93;9.25;;;;;;;17.21;53.53;101583.22;6279317;22;20030;-82
2023/02/22 00:37:49;;;;;;;11.60;9.43;;;;;;;17.20;53.38;101576.28;6279196;22;20010;-82
2023/02/22 00:40:23;;;;;;;13.00;9.68;;;;;;;17.21;53.59;101572.81;6226272;22;20041;-81
2023/02/22 00:42:56;;;;;;;12.75;9.38;;;;;;;17.19;53.58;101566.75;6251485;22;20038;-83
2023/02/22 00:45:24;;;;;;;14.00;10.63;;;;;;;17.19;53.30;101562.41;6226435;22;20008;-84
2023/02/22 00:47:54;;;;;;;11.80;9.60;;;;;;;17.19;53.30;101561.53;6251013;22;20105;-84
2023/02/22 00:50:47;;;;;;;12.15;9.65;;;;;;;17.20;53.55;101558.06;6226855;22;20018;-85
2023/02/22 00:53:21;;;;;;;11.80;9.85;;;;;;;17.19;53.42;101552.00;6278497;22;20121;-85
2023/02/22 00:55:47;;;;;;;12.15;9.52;;;;;;;17.18;53.39;101546.78;6251708;22;20000;-85
2023/02/22 00:58:19;;;;;;;13.02;9.50;;;;;;;17.18;53.23;101545.06;6225869;22;20023;-86
2023/02/22 01:00:51;;;;;;;13.00;9.70;;;;;;;17.17;53.59;101540.72;6251524;22;20065;-87
2023/02/22 01:03:23;;;;;;;12.93;9.98;;;;;;;17.18;53.44;101542.47;6278567;22;19995;-85
2023/02/22 01:05:52;;;;;;;13.50;10.15;;;;;;;17.18;53.53;101541.59;6225641;22;20023;-86
2023/02/22 01:08:20;;;;;;;12.95;10.02;;;;;;;17.18;53.33;101536.38;6251016;22;20007;-86
2023/02/22 01:10:55;;;;;;;12.43;9.27;;;;;;;17.19;53.68;101543.34;6202292;22;20007;-85
2023/02/22 01:13:21;;;;;;;14.52;10.10;;;;;;;17.15;53.33;101542.44;6226258;22;20011;-83
2023/02/22 01:15:55;;;;;;;12.75;9.60;;;;;;;17.17;53.52;101555.47;6225623;22;20008;-85
2023/02/22 01:18:22;;;;;;;;;;;;;;;17.17;53.28;101545.06;6251955;22;20063;-86
2023/02/22 01:20:50;;;;;;;13.10;10.40;;;;;;;17.16;53.45;101540.72;6251220;22;19952;-86
2023/02/22 01:23:16;;;;;;;13.15;10.15;;;;;;;17.15;53.29;101537.25;6250999;22;20033;-86
2023/02/22 01:25:47;;;;;;;14.30;10.10;;;;;;;17.15;53.35;101542.44;6250707;22;20086;-85
2023/02/22 01:28:16;;;;;;;12.40;9.80;;;;;;;17.16;53.46;101544.19;6226183;22;20008;-84
2023/02/22 01:33:47;;;;;;;14.23;10.43;;;;;;;17.16;53.57;101554.59;6278204;22;20065;-83
2023/02/22 01:39:46;;;;;;;12.77;9.88;;;;;;;17.15;53.21;101542.44;6278380;22;20129;-82
2023/02/22 01:42:16;;;;;;;12.70;10.23;;;;;;;17.15;53.33;101542.44;6250666;22;20003;-83
2023/02/22 01:45:26;;;;;;;12.45;10.43;;;;;;;17.13;53.32;101538.97;6226386;22;20077;-84
2023/02/22 01:47:52;;;;;;;12.95;10.57;;;;;;;17.13;53.18;101546.78;6250470;22;20427;-86
2023/02/22 01:54:18;;;;;;;12.52;9.93;;;;;;;17.12;53.22;101531.19;6278197;22;20077;-83
2023/02/22 01:57:04;;;;;;;14.80;10.02;;;;;;;17.13;53.44;101527.72;6203981;22;20095;-84
2023/02/22 01:59:42;;;;;;;12.45;10.25;;;;;;;17.13;53.41;101522.50;6251214;22;20004;-84
2023/02/22 02:02:08;;;;;;;12.88;9.98;;;;;;;17.11;53.31;101524.22;6251348;22;20015;-82
2023/02/22 02:04:35;;;;;;;12.88;10.27;;;;;;;17.12;53.18;101524.25;6250569;22;20083;-83
2023/02/22 02:07:04;;;;;;;14.00;11.02;;;;;;;17.11;53.46;101514.69;6250671;22;20004;-82
2023/02/22 02:09:46;;;;;;;14.13;10.80;;;;;;;17.10;53.07;101510.38;6250505;22;20363;-83
2023/02/22 02:12:16;;;;;;;12.05;9.90;;;;;;;17.12;53.21;101510.38;6250949;22;20453;-83
2023/02/22 02:14:45;;;;;;;11.38;10.15;;;;;;;17.10;53.52;101502.56;6250622;22;20007;-85
2023/02/22 02:17:17;;;;;;;13.27;10.77;;;;;;;17.11;53.37;101506.88;6249901;22;20004;-85
2023/02/22 02:20:15;;;;;;;11.98;9.48;;;;;;;17.10;53.14;101499.97;6250298;22;20420;-82
2023/02/22 02:22:43;;;;;;;12.73;10.05;;;;;;;17.11;53.34;101500.81;6215680;22;20010;-81
2023/02/22 02:25:38;;;;;;;11.85;9.70;;;;;;;17.08;53.06;101498.22;6251140;22;20114;-82
2023/02/22 02:28:32;;;;;;;12.10;10.20;;;;;;;17.08;53.24;101506.03;6250306;22;20086;-81
2023/02/22 02:31:01;;;;;;;11.32;9.50;;;;;;;17.09;53.23;101502.56;6252205;22;20379;-85
2023/02/22 02:33:37;;;;;;;12.48;10.00;;;;;;;17.07;53.12;101492.13;6255120;22;20008;-84
2023/02/22 02:36:12;;;;;;;11.60;9.40;;;;;;;17.09;53.40;101497.34;6255138;22;20011;-86
2023/02/22 02:38:38;;;;;;;12.27;10.00;;;;;;;17.09;53.10;101487.81;6256082;22;20011;-85
2023/02/22 02:41:15;;;;;;;11.32;9.48;;;;;;;17.06;53.12;101486.06;6252644;22;20018;-85
2023/02/22 02:43:56;;;;;;;11.43;9.50;;;;;;;17.07;53.22;101489.53;6251224;22;20004;-85
2023/02/22 02:46:55;;;;;;;12.25;9.70;;;;;;;17.05;53.06;101476.56;6251539;22;19999;-86
2023/02/22 02:49:26;;;;;;;12.45;10.27;;;;;;;17.06;53.23;101472.22;6251128;22;20000;-86
2023/02/22 02:51:55;;;;;;;10.98;9.13;;;;;;;17.06;53.04;101480.00;6251546;22;20026;-85
2023/02/22 02:54:22;;;;;;;12.13;9.52;;;;;;;17.06;53.21;101477.41;6251101;22;20003;-82
2023/02/22 02:56:51;;;;;;;11.27;9.73;;;;;;;17.06;53.06;101469.63;6250520;22;20016;-83
2023/02/22 02:59:34;;;;;;;10.27;8.77;;;;;;;17.06;53.16;101465.28;6250485;22;20008;-84
2023/02/22 03:02:21;;;;;;;12.30;9.20;;;;;;;17.05;52.92;101460.94;6250671;22;20004;-82
2023/02/22 03:05:06;;;;;;;11.88;9.50;;;;;;;17.03;53.11;101460.06;6278028;22;20007;-83
2023/02/22 03:07:56;;;;;;;9.73;8.73;;;;;;;17.04;53.22;101459.19;6251086;22;20004;-83
2023/02/22 03:10:27;;;;;;;9.85;8.80;;;;;;;17.06;53.06;101456.63;6252847;22;20108;-82
2023/02/22 03:13:01;;;;;;;11.65;9.63;;;;;;;17.03;53.16;101456.63;6252763;22;20367;-83
2023/02/22 03:15:47;;;;;;;11.25;9.50;;;;;;;17.02;53.05;101447.91;6279120;22;20034;-82
2023/02/22 03:18:31;;;;;;;10.68;9.35;;;;;;;17.02;52.94;101445.31;6252051;22;20004;-82
2023/02/22 03:21:33;;;;;;;11.13;9.13;;;;;;;17.03;53.04;101434.06;6251916;22;20473;-80
2023/02/22 03:24:08;;;;;;;10.18;8.75;;;;;;;17.02;53.14;101432.31;6252415;22;20004;-85
2023/02/22 03:26:44;;;;;;;10.25;8.73;;;;;;;17.01;52.85;101432.34;6252008;22;20007;-84
2023/02/22 03:29:21;;;;;;;10.90;9.23;;;;;;;17.01;52.90;101424.53;6251015;22;20010;-82
2023/02/22 03:32:00;;;;;;;9.52;8.52;;;;;;;17.00;53.15;101423.66;6251798;22;20071;-82
2023/02/22 03:34:31;;;;;;;10.60;8.60;;;;;;;17.01;53.11;101421.94;6251758;22;20019;-84
2023/02/22 03:37:02;;;;;;;9.40;8.40;;;;;;;17.00;53.01;101422.78;6251416;22;20010;-82
2023/02/22 03:39:31;;;;;;;10.68;8.85;;;;;;;17.01;52.93;101416.75;6251890;22;20010;-84
2023/02/22 03:42:15;;;;;;;10.68;8.65;;;;;;;17.01;53.05;101411.53;6227664;22;20423;-82
2023/02/22 03:44:43;;;;;;;8.90;8.00;;;;;;;17.01;52.89;101406.34;6252565;22;20057;-84
2023/02/22 03:47:15;;;;;;;10.15;8.43;;;;;;;17.00;52.84;101400.25;6252143;22;20086;-82
2023/02/22 03:49:50;;;;;;;10.77;8.90;;;;;;;16.99;52.89;101403.72;6251733;22;20007;-83
2023/02/22 03:52:16;;;;;;;9.57;8.52;;;;;;;16.99;52.95;101398.53;6252553;22;20054;-82
2023/02/22 03:54:42;;;;;;;9.43;8.40;;;;;;;16.98;53.01;101391.56;6251771;22;20435;-81
2023/02/22 03:57:21;;;;;;;10.55;8.90;;;;;;;16.99;53.06;101397.66;6251678;22;20313;-82
2023/02/22 03:59:47;;;;;;;9.98;8.73;;;;;;;16.98;52.77;101388.97;6278838;22;20007;-81
2023/02/22 04:02:13;;;;;;;8.77;7.88;;;;;;;16.98;52.98;101388.97;6225702;22;20427;-82
2023/02/22 04:04:41;;;;;;;9.25;8.32;;;;;;;16.97;52.89;101376.00;6201457;22;20013;-80
2023/02/22 04:07:07;;;;;;;9.30;8.27;;;;;;;16.95;52.68;101368.19;6202090;22;20057;-85
2023/02/22 04:09:32;;;;;;;9.55;8.60;;;;;;;16.95;52.91;101367.31;6202188;22;20008;-85
2023/02/22 04:11:57;;;;;;;9.90;7.90;;;;;;;16.95;52.77;101368.19;6251963;22;20012;-84
2023/02/22 04:14:23;;;;;;;9.38;7.88;;;;;;;16.95;53.05;101368.19;6201447;22;20007;-85
2023/02/22 04:16:48;;;;;;;8.98;7.80;;;;;;;16.95;52.91;101360.38;6226684;22;20003;-82
2023/02/22 04:19:14;;;;;;;9.13;8.02;;;;;;;16.95;52.96;101373.38;6201714;22;20016;-81
2023/02/22 04:21:39;;;;;;;8.90;8.00;;;;;;;16.95;52.87;101369.94;6226081;22;20424;-84
2023/02/22 04:24:05;;;;;;;9.40;8.15;;;;;;;16.93;52.86;101369.91;6227265;22;20121;-81
2023/02/22 04:26:30;;;;;;;9.77;8.13;;;;;;;16.93;52.52;101362.13;6201185;22;20034;-84
2023/02/22 04:28:56;;;;;;;9.38;8.07;;;;;;;16.92;52.79;101362.09;6226720;22;20022;-84
2023/02/22 04:31:21;;;;;;;8.27;7.47;;;;;;;16.93;52.65;101366.44;6200913;22;20039;-87
2023/02/22 04:33:47;;;;;;;9.80;7.90;;;;;;;16.93;52.73;101363.84;6226920;22;20037;-87
2023/02/22 04:36:15;;;;;;;9.60;8.10;;;;;;;16.94;52.75;101360.38;6252003;22;20098;-87
2023/02/22 04:38:42;;;;;;;10.15;8.40;;;;;;;16.93;52.82;101359.50;6226937;22;20003;-87
2023/02/22 04:41:10;;;;;;;8.57;7.68;;;;;;;16.90;52.73;101362.13;6252563;22;20007;-85
2023/02/22 04:43:35;;;;;;;8.90;7.43;;;;;;;16.90;52.58;101350.84;6226351;22;20020;-86
2023/02/22 04:46:01;;;;;;;8.80;7.78;;;;;;;16.90;52.75;101343.03;6226779;22;20332;-84
2023/02/22 04:48:28;;;;;;;8.55;7.20;;;;;;;16.90;53.00;101349.13;6251485;22;20017;-86
2023/02/22 04:50:54;;;;;;;9.05;7.70;;;;;;;16.90;52.72;101343.94;6251640;22;20071;-86
2023/02/22 04:53:21;;;;;;;8.20;7.10;;;;;;;16.88;52.50;101340.47;6251822;22;20003;-86
2023/02/22 04:55:46;;;;;;;8.40;7.32;;;;;;;16.88;52.45;101337.84;6251883;22;20035;-84
2023/02/22 04:58:11;;;;;;;8.43;7.20;;;;;;;16.88;52.66;101335.25;6251347;22;20019;-82
2023/02/22 05:00:37;;;;;;;8.30;7.38;;;;;;;16.89;52.77;101336.97;6226069;22;20489;-84
2023/02/22 05:03:03;;;;;;;7.80;7.00;;;;;;;16.91;52.64;101335.25;6226456;22;20367;-84
2023/02/22 05:05:28;;;;;;;7.80;7.00;;;;;;;16.91;52.99;101329.19;6225847;22;20090;-87
2023/02/22 05:07:53;;;;;;;7.97;6.93;;;;;;;16.92;52.75;101328.31;6225957;22;20322;-83
2023/02/22 05:10:19;;;;;;;8.70;7.13;;;;;;;16.91;53.04;101327.44;6225941;22;20094;-83
2023/02/22 05:12:45;;;;;;;7.47;6.72;;;;;;;16.92;52.88;101321.41;6251245;22;20016;-83
2023/02/22 05:15:16;;;;;;;7.82;6.65;;;;;;;16.91;52.60;101319.66;6200664;22;20332;-85
2023/02/22 05:17:41;;;;;;;7.13;6.30;;;;;;;16.93;52.86;101311.84;6251503;22;20007;-83
2023/02/22 05:20:07;;;;;;;7.50;6.68;;;;;;;16.92;52.80;101308.41;6204426;22;20402;-86
2023/02/22 05:22:33;;;;;;;7.82;6.50;;;;;;;16.93;52.74;101314.47;6207897;22;20030;-85
2023/02/22 05:24:58;;;;;;;6.50;5.80;;;;;;;16.93;52.54;101302.31;6230597;22;20432;-86
2023/02/22 05:27:24;;;;;;;6.50;5.88;;;;;;;16.94;52.72;101310.97;6230705;22;20008;-87
2023/02/22 05:29:49;;;;;;;7.05;6.00;;;;;;;16.94;52.81;101296.28;6233270;22;20015;-86
2023/02/22 05:32:20;;;;;;;7.00;6.05;;;;;;;16.94;52.79;101293.69;6281465;22;20034;-86
2023/02/22 05:34:45;;;;;;;7.32;6.43;;;;;;;16.94;52.67;101298.88;6252367;22;20014;-86
2023/02/22 05:37:14;;;;;;;6.95;5.78;;;;;;;16.93;52.92;101293.66;6228088;22;20012;-86
2023/02/22 05:39:39;;;;;;;7.18;6.43;;;;;;;16.92;52.75;101298.00;6227553;22;20339;-86
2023/02/22 05:42:05;;;;;;;7.43;6.53;;;;;;;16.93;52.73;101291.06;6201997;22;20008;-85
2023/02/22 05:44:30;;;;;;;8.10;6.28;;;;;;;16.94;52.80;101288.47;6252263;22;20004;-84
2023/02/22 05:46:55;;;;;;;7.38;6.60;;;;;;;16.95;52.76;101286.72;6226211;22;20014;-86
2023/02/22 05:49:21;;;;;;;6.97;6.05;;;;;;;16.92;52.98;101284.09;6200941;22;20336;-83
2023/02/22 05:51:46;;;;;;;6.88;6.18;;;;;;;16.94;52.81;101288.47;6225793;22;20087;-82
2023/02/22 05:54:12;;;;;;;7.00;6.13;;;;;;;16.94;52.79;101283.28;6251027;22;20003;-83
2023/02/22 05:56:37;;;;;;;6.70;5.82;;;;;;;16.94;53.01;101290.19;6201047;22;20039;-84
2023/02/22 05:59:03;;;;;;;6.50;5.75;;;;;;;16.95;52.77;101284.13;6225646;22;20038;-82
2023/02/22 06:01:28;;;;;;;6.32;5.70;;;;;;;16.94;52.61;101280.66;6200655;22;20086;-84
2023/02/22 06:03:54;;;;;;;6.82;5.55;;;;;;;16.95;53.14;101282.38;6225785;22;20007;-88
2023/02/22 06:06:19;;;;;;;8.82;6.10;;;;;;;16.95;52.75;101282.38;6226466;22;20012;-84
2023/02/22 06:08:46;;;;;;;6.28;5.68;;;;;;;16.96;52.89;101286.75;6250817;22;20041;-80
2023/02/22 06:11:11;;;;;;;9.15;6.03;;;;;;;16.95;52.85;101286.72;6225655;22;20090;-90
2023/02/22 06:13:38;;;;;;;7.32;6.32;;;;;;;16.98;52.67;101284.13;6225900;22;20370;-81
2023/02/22 06:16:04;;;;;;;6.93;5.43;;;;;;;16.97;52.84;101287.59;6250844;22;20099;-84
2023/02/22 06:18:30;;;;;;;7.75;6.30;;;;;;;16.97;52.86;101285.00;6250573;22;19999;-82
2023/02/22 06:20:56;;;;;;;8.00;6.03;;;;;;;16.95;52.70;101285.00;6225552;22;20011;-82
2023/02/22 06:23:22;;;;;;;7.20;6.13;;;;;;;16.97;52.67;101288.47;6251345;22;20397;-81
2023/02/22 06:25:48;;;;;;;7.03;5.13;;;;;;;16.98;52.74;101287.56;6199902;22;20015;-84
2023/02/22 06:28:14;;;;;;;6.30;5.57;;;;;;;16.99;52.60;101283.28;6225447;22;20432;-82
2023/02/22 06:30:41;;;;;;;6.22;5.57;;;;;;;16.97;52.79;101280.66;6250827;22;20003;-83
2023/02/22 06:33:07;;;;;;;7.03;6.07;;;;;;;16.97;52.60;101282.41;6225759;22;20027;-84
2023/02/22 06:35:33;;;;;;;7.07;5.93;;;;;;;16.98;52.91;101284.13;6225861;22;20008;-83
2023/02/22 06:37:58;;;;;;;5.85;5.15;;;;;;;16.98;53.06;101279.78;6200445;22;20429;-83
2023/02/22 06:40:28;;;;;;;6.55;5.57;;;;;;;16.98;53.14;101274.56;6225782;22;20035;-86
2023/02/22 06:42:53;;;;;;;7.05;5.47;;;;;;;17.00;53.05;101277.19;6227781;22;20060;-85
2023/02/22 06:45:19;;;;;;;7.03;5.50;;;;;;;16.99;53.13;101281.53;6228083;22;20069;-85
2023/02/22 06:47:45;;;;;;;7.20;5.88;;;;;;;17.00;53.06;101279.78;6202596;22;20031;-87
2023/02/22 06:50:25;;;;;;;10.23;5.97;;;;;;;16.98;53.28;101278.91;6228653;22;20004;-88
2023/02/22 06:52:50;;;;;;;14.10;6.72;;;;;;;17.11;53.27;101278.03;6252335;22;20057;-83
2023/02/22 06:55:18;;;;;;;13.48;7.15;;;;;;;17.18;53.14;101274.59;6226749;22;20003;-80
2023/02/22 06:57:44;;;;;;;13.60;6.40;;;;;;;17.23;53.26;101265.03;6251847;22;20022;-82
2023/02/22 07:00:10;;;;;;;10.82;7.35;;;;;;;17.28;52.93;101265.91;6252222;22;20305;-82
2023/02/22 07:02:36;;;;;;;12.32;6.60;;;;;;;17.29;53.02;101269.38;6252591;22;20049;-80
2023/02/22 07:05:01;;;;;;;10.63;7.03;;;;;;;17.30;53.02;101272.84;6201673;22;20011;-81
2023/02/22 07:07:26;;;;;;;12.20;7.55;;;;;;;17.30;52.97;101263.28;6226518;22;20015;-81
2023/02/22 07:09:52;;;;;;;11.93;7.28;;;;;;;17.30;52.93;101268.50;6226125;22;20039;-78
2023/02/22 07:12:17;;;;;;;14.43;7.60;;;;;;;17.31;53.09;101266.75;6201234;22;20054;-80
2023/02/22 07:14:43;;;;;;;11.15;7.72;;;;;;;17.32;52.68;101263.31;6201700;22;20008;-83
2023/02/22 07:17:08;;;;;;;9.70;7.03;;;;;;;17.33;52.89;101257.22;6226514;22;20031;-80
2023/02/22 07:19:33;;;;;;;9.27;6.65;;;;;;;17.33;52.84;101262.41;6201168;22;20014;-81
2023/02/22 07:21:59;;;;;;;9.02;6.97;;;;;;;17.33;52.80;101265.88;6225939;22;20090;-80
2023/02/22 07:24:27;;;;;;;13.10;7.28;;;;;;;17.35;52.67;101260.69;6226318;22;20008;-79
2023/02/22 07:26:52;;;;;;;9.45;7.07;;;;;;;17.34;52.63;101261.56;6226641;22;20011;-78
2023/02/22 07:29:18;;;;;;;11.30;7.18;;;;;;;17.35;52.55;101260.69;6226127;22;20029;-79
2023/02/22 07:31:43;;;;;;;12.32;7.03;;;;;;;17.35;52.66;101269.34;6251572;22;20014;-81
2023/02/22 07:34:09;;;;;;;10.23;7.13;;;;;;;17.36;52.63;101267.63;6200920;22;20455;-79
2023/02/22 07:36:34;;;;;;;9.57;6.80;;;;;;;17.37;52.36;101272.81;6251610;22;20079;-81
2023/02/22 07:38:59;;;;;;;12.48;7.55;;;;;;;17.37;52.51;101274.56;6226237;22;20011;-80
2023/02/22 07:41:25;;;;;;;11.93;6.97;;;;;;;17.38;52.49;101271.09;6200863;22;20008;-79
2023/02/22 07:43:50;;;;;;;10.25;6.80;;;;;;;17.38;52.16;101255.50;6226301;22;20011;-79
2023/02/22 07:46:16;;;;;;;10.85;6.97;;;;;;;17.39;52.39;101265.88;6253470;22;20073;-79
2023/02/22 07:48:41;;;;;;;9.32;7.63;;;;;;;17.40;52.26;101266.75;6254115;22;20007;-82
2023/02/22 07:51:08;;;;;;;9.43;6.93;;;;;;;17.42;52.29;101272.81;6251732;22;20414;-80
2023/02/22 07:53:33;;;;;;;8.13;6.85;;;;;;;17.40;51.90;101272.81;6201821;22;20007;-81
2023/02/22 07:56:01;;;;;;;10.82;6.47;;;;;;;17.41;51.42;101271.94;6225772;22;20000;-79
2023/02/22 07:58:28;;;;;;;9.98;6.60;;;;;;;17.41;51.98;101276.28;6278330;22;20020;-80
2023/02/22 08:00:54;;;;;;;8.30;6.88;;;;;;;17.43;51.96;101282.34;6251454;22;20012;-81
2023/02/22 08:03:22;;;;;;;8.90;6.68;;;;;;;17.38;52.11;101279.78;6251638;22;20367;-78
2023/02/22 08:05:50;;;;;;;9.77;7.28;;;;;;;17.42;51.86;101275.41;6250895;22;20377;-77
2023/02/22 08:08:16;;;;;;;15.27;6.90;;;;;;;17.45;51.55;101271.06;6252041;22;20050;-77
2023/02/22 08:10:43;;;;;;;10.93;7.18;;;;;;;17.48;51.77;101265.00;6253476;22;20035;-76
2023/02/22 08:13:08;;;;;;;8.65;7.13;;;;;;;17.50;51.90;101263.25;6252305;22;20008;-77
2023/02/22 08:15:39;;;;;;;8.05;6.35;;;;;;;17.55;51.54;101263.22;6280399;22;20087;-76
2023/02/22 08:18:08;;;;;;;8.88;6.65;;;;;;;17.59;51.63;101270.16;6278202;22;20071;-77
2023/02/22 08:20:42;;;;;;;10.65;6.10;;;;;;;17.59;51.73;101267.56;6252061;22;20049;-78
2023/02/22 08:23:08;;;;;;;8.48;5.57;;;;;;;17.60;51.62;101275.38;6252996;22;20000;-80
2023/02/22 08:25:34;;;;;;;8.40;6.10;;;;;;;17.60;51.95;101270.19;6252748;22;20325;-78
2023/02/22 08:28:09;;;;;;;8.90;5.90;;;;;;;17.61;51.72;101263.22;6253178;22;20004;-76
2023/02/22 08:30:37;;;;;;;6.18;5.50;;;;;;;17.61;51.59;101256.28;6253104;22;20026;-78
2023/02/22 08:33:04;;;;;;;7.13;5.32;;;;;;;17.61;51.62;101255.41;6226605;22;20018;-78
2023/02/22 08:35:31;;;;;;;7.45;5.18;;;;;;;17.61;51.76;101258.03;6278908;22;20066;-79
2023/02/22 08:38:02;;;;;;;7.18;5.05;;;;;;;17.61;51.59;101264.09;6278860;22;20000;-78
2023/02/22 08:40:30;;;;;;;6.10;4.95;;;;;;;17.62;51.54;101268.44;6279147;22;20004;-77
2023/02/22 08:42:56;;;;;;;6.03;5.25;;;;;;;17.61;51.61;101263.22;6251731;22;20000;-78
2023/02/22 08:45:22;;;;;;;6.57;4.95;;;;;;;17.62;51.52;101267.56;6201217;22;20014;-78
2023/02/22 08:47:48;;;;;;;6.90;4.88;;;;;;;17.61;51.70;101263.22;6201210;22;20003;-81
2023/02/22 08:50:26;;;;;;;6.60;4.95;;;;;;;17.61;51.78;101260.63;6251774;22;19999;-79
2023/02/22 08:52:54;;;;;;;7.13;4.85;;;;;;;17.63;51.59;101248.47;6278360;22;20008;-78
2023/02/22 08:55:20;;;;;;;6.50;4.72;;;;;;;17.64;51.51;101252.81;6251509;22;20463;-78
2023/02/22 08:57:46;;;;;;;6.05;4.57;;;;;;;17.64;51.38;101245.88;6250973;22;20094;-78
2023/02/22 09:00:12;;;;;;;5.40;4.40;;;;;;;17.65;51.34;101252.78;6226052;22;20073;-79
2023/02/22 09:02:37;;;;;;;6.90;4.45;;;;;;;17.65;51.27;101245.00;6225705;22;20502;-77
2023/02/22 09:05:04;;;;;;;5.57;4.22;;;;;;;17.65;51.38;101239.78;6225625;22;20012;-80
2023/02/22 09:07:30;;;;;;;4.57;3.95;;;;;;;17.66;51.27;101230.25;6250278;22;20011;-78
2023/02/22 09:09:55;;;;;;;4.80;4.30;;;;;;;17.69;51.32;101230.25;6200521;22;20034;-79
2023/02/22 09:12:21;;;;;;;6.45;4.68;;;;;;;17.68;51.31;101224.19;6200640;22;20317;-78
2023/02/22 09:14:46;;;;;;;5.05;4.13;;;;;;;17.69;51.29;101214.63;6225818;22;20034;-79
2023/02/22 09:17:11;;;;;;;4.95;4.03;;;;;;;17.71;51.25;101230.25;6250929;22;20014;-79
2023/02/22 09:19:37;;;;;;;5.10;4.13;;;;;;;17.69;51.29;101225.88;6250793;22;20007;-78
2023/02/22 09:22:02;;;;;;;4.70;3.88;;;;;;;17.71;51.35;101217.22;6277778;22;20033;-79
2023/02/22 09:24:28;;;;;;;4.70;4.13;;;;;;;17.69;51.30;101222.44;6225352;22;20015;-79
2023/02/22 09:26:53;;;;;;;4.82;3.63;;;;;;;17.71;51.32;101222.44;6225228;22;20061;-79
2023/02/22 09:29:25;;;;;;;5.90;4.00;;;;;;;17.72;51.20;101214.59;6250987;22;19999;-79
2023/02/22 09:31:55;;;;;;;4.57;3.78;;;;;;;17.74;51.10;101206.78;6250393;22;19996;-78
2023/02/22 09:34:28;;;;;;;4.38;3.85;;;;;;;17.74;51.29;101198.97;6278559;22;20004;-78
2023/02/22 09:36:54;;;;;;;4.30;3.58;;;;;;;17.74;51.21;101194.63;6277576;22;20010;-77
2023/02/22 09:39:20;;;;;;;4.70;3.50;;;;;;;17.75;51.19;101193.78;6225293;22;20007;-78
2023/02/22 09:42:21;;;;;;;4.47;3.92;;;;;;;17.77;51.13;101196.34;6225064;22;20065;-79
2023/02/22 09:45:11;;;;;;;4.45;3.65;;;;;;;17.78;51.14;101193.75;6158863;23;20024;-78
2023/02/22 09:48:00;;;;;;;4.00;3.60;;;;;;;17.79;51.14;101181.59;6246667;22;20083;-78
2023/02/22 09:50:36;;;;;;;4.43;3.65;;;;;;;17.80;50.85;101175.53;6249899;22;20387;-78
2023/02/22 09:53:20;;;;;;;5.75;3.67;;;;;;;17.82;50.99;101179.88;6249870;22;20497;-78
2023/02/22 09:55:48;;;;;;;;;;;;;;;17.84;51.06;101185.94;6250399;22;20060;-78
2023/02/22 09:58:32;;;;;;;3.92;3.53;;;;;;;17.87;51.20;101174.66;6276792;22;19965;-79
2023/02/22 10:01:31;;;;;;;4.10;3.70;;;;;;;17.87;50.76;101188.53;6250117;22;20091;-77
2023/02/22 10:04:21;;;;;;;5.00;3.50;;;;;;;17.92;51.06;101208.47;6250318;22;20010;-79
2023/02/22 10:07:10;;;;;;;4.43;3.42;;;;;;;17.95;51.10;101224.09;6277427;22;20053;-78
2023/02/22 10:09:43;;;;;;;5.20;3.90;;;;;;;17.98;50.77;101224.06;6250223;22;20003;-80
2023/02/22 10:12:32;;;;;;;4.55;3.80;;;;;;;17.99;50.77;101221.47;6277029;22;19999;-80
2023/02/22 10:15:24;;;;;;;4.68;3.80;;;;;;;18.00;50.67;101217.97;6260334;22;20133;-79
2023/02/22 10:18:14;;;;;;;4.55;3.72;;;;;;;18.00;50.77;101224.94;6251013;22;20086;-79
2023/02/22 10:20:54;;;;;;;4.45;3.50;;;;;;;17.99;50.67;101228.41;6280428;22;20444;-79
2023/02/22 10:23:35;;;;;;;3.90;3.47;;;;;;;17.98;50.94;101226.69;6253276;22;20008;-79
2023/02/22 10:26:14;;;;;;;3.85;3.45;;;;;;;17.97;50.62;101220.59;6253117;22;20000;-80
2023/02/22 10:28:52;;;;;;;4.03;3.20;;;;;;;17.98;50.83;101208.44;6253100;22;20038;-78
2023/02/22 10:31:29;;;;;;;4.00;3.45;;;;;;;18.00;50.75;101204.09;6252976;22;20003;-79
2023/02/22 10:33:59;;;;;;;3.97;3.30;;;;;;;18.01;50.81;101204.09;6252945;22;20058;-80
2023/02/22 10:36:25;;;;;;;4.00;3.60;;;;;;;18.03;50.55;101193.66;6253297;22;20013;-79
2023/02/22 10:38:58;;;;;;;3.53;3.20;;;;;;;18.05;50.58;101186.69;6280332;22;20003;-79
2023/02/22 10:41:33;;;;;;;3.90;3.42;;;;;;;18.06;50.55;101185.84;6253141;22;20007;-79
2023/02/22 10:44:01;;;;;;;3.40;3.08;;;;;;;18.06;50.58;101191.03;6280311;22;20003;-78
2023/02/22 10:46:29;;;;;;;3.70;3.13;;;;;;;18.07;50.93;101179.75;6252811;22;20019;-80
2023/02/22 10:49:03;;;;;;;3.50;3.17;;;;;;;18.06;50.78;101180.63;6252848;22;20010;-81
2023/02/22 10:51:29;;;;;;;4.03;2.90;;;;;;;18.03;50.68;101209.28;6252557;22;20416;-77
2023/02/22 10:54:25;;;;;;;4.25;3.22;;;;;;;18.00;50.92;101214.50;6280153;22;20018;-79
2023/02/22 10:56:54;;;;;;;3.72;3.13;;;;;;;17.98;50.82;101213.66;6252882;22;20049;-78
2023/02/22 10:59:29;;;;;;;4.18;3.13;;;;;;;17.98;50.82;101221.47;6228475;22;20008;-77
2023/02/22 11:01:54;;;;;;;4.20;3.13;;;;;;;18.00;50.77;101222.31;6253901;22;19999;-80
2023/02/22 11:04:21;;;;;;;3.47;2.95;;;;;;;17.99;50.66;101223.22;6228749;22;20070;-78
2023/02/22 11:06:57;;;;;;;3.63;3.05;;;;;;;18.02;50.75;101217.97;6228574;22;20007;-78
2023/02/22 11:09:22;;;;;;;3.40;3.03;;;;;;;18.05;50.54;101211.03;6280010;22;19999;-78
2023/02/22 11:12:07;;;;;;;3.28;2.92;;;;;;;18.07;50.52;101204.06;6227662;22;20049;-77
2023/02/22 11:14:32;;;;;;;3.97;3.33;;;;;;;18.10;50.51;101205.78;6257397;22;20392;-79
2023/02/22 11:17:00;;;;;;;3.40;2.72;;;;;;;18.10;50.75;101197.97;6202395;22;20008;-77
2023/02/22 11:19:28;;;;;;;3.75;3.28;;;;;;;18.11;50.57;101199.69;6227537;22;20004;-79
2023/02/22 11:22:09;;;;;;;3.67;3.15;;;;;;;18.12;50.77;101203.16;6253046;22;19996;-79
2023/02/22 11:24:45;;;;;;;3.67;3.13;;;;;;;18.13;50.58;101207.50;6253197;22;20443;-82
2023/02/22 11:27:32;;;;;;;4.40;3.00;;;;;;;18.12;50.53;101201.44;6254161;22;20431;-82
2023/02/22 11:30:25;;;;;;;3.40;3.08;;;;;;;18.11;50.65;101197.09;6251709;22;20432;-82
2023/02/22 11:33:14;;;;;;;3.58;3.17;;;;;;;18.12;50.45;101198.81;6279535;22;20371;-80
2023/02/22 11:35:57;;;;;;;3.10;2.80;;;;;;;18.13;50.86;101184.91;6251787;22;20082;-84
2023/02/22 11:38:24;;;;;;;4.80;2.97;;;;;;;18.14;50.88;101185.78;6278598;22;20366;-83
2023/02/22 11:41:14;;;;;;;3.30;3.00;;;;;;;18.14;50.78;101171.03;6251238;22;20038;-80
2023/02/22 11:43:44;;;;;;;3.80;2.80;;;;;;;18.14;50.85;101168.44;6278574;22;20090;-81
2023/02/22 11:46:25;;;;;;;3.22;2.92;;;;;;;18.13;51.03;101160.63;6252500;22;20004;-81
2023/02/22 11:49:06;;;;;;;3.88;3.00;;;;;;;18.12;50.96;101148.44;6251430;22;20090;-79
2023/02/22 11:51:47;;;;;;;3.20;2.90;;;;;;;18.11;51.11;101142.38;6251218;22;20015;-80
2023/02/22 11:54:51;;;;;;;3.65;2.65;;;;;;;18.11;51.05;101134.56;6251479;22;20042;-79
2023/02/22 11:57:46;;;;;;;6.10;3.00;;;;;;;18.13;51.20;101132.81;6250835;22;20042;-78
2023/02/22 12:00:32;;;;;;;4.28;2.72;;;;;;;18.14;51.04;101139.78;6251019;22;20448;-79
2023/02/22 12:03:30;;;;;;;3.53;2.63;;;;;;;18.16;50.88;101134.53;6250856;22;20000;-79